createdAt,value
2017-10-12T00:00:54.881Z,10.70
2017-10-12T00:03:21.146Z,15.27
2017-10-12T00:05:47.353Z,13.07
2017-10-12T00:08:13.568Z,13.67
2017-10-12T00:10:39.801Z,13.00
2017-10-12T00:13:06.011Z,12.67
2017-10-12T00:15:32.219Z,13.23
2017-10-12T00:17:58.486Z,12.30
2017-10-12T00:20:24.702Z,14.40
2017-10-12T00:22:50.947Z,13.00
2017-10-12T00:25:17.198Z,14.53
2017-10-12T00:27:43.415Z,13.10
2017-10-12T00:30:09.624Z,15.03
2017-10-12T00:32:35.896Z,13.33
2017-10-12T00:35:02.125Z,14.17
2017-10-12T00:37:28.450Z,14.10
2017-10-12T00:39:54.696Z,15.77
2017-10-12T00:42:20.927Z,13.77
2017-10-12T00:44:47.142Z,13.03
2017-10-12T00:47:13.417Z,13.33
2017-10-12T00:49:39.816Z,13.53
2017-10-12T00:52:06.061Z,13.80
2017-10-12T00:54:32.492Z,13.73
2017-10-12T00:56:58.733Z,12.93
2017-10-12T00:59:24.971Z,12.30
2017-10-12T01:01:51.244Z,14.20
2017-10-12T01:04:17.471Z,15.07
2017-10-12T01:06:43.686Z,14.90
2017-10-12T01:09:09.968Z,13.83
2017-10-12T01:11:36.202Z,13.33
2017-10-12T01:14:02.465Z,14.50
2017-10-12T01:16:28.752Z,15.03
2017-10-12T01:18:54.975Z,14.27
2017-10-12T01:21:21.198Z,14.17
2017-10-12T01:23:47.461Z,15.37
2017-10-12T01:26:13.680Z,16.60
2017-10-12T01:28:39.894Z,19.17
2017-10-12T01:31:06.151Z,19.17
2017-10-12T01:33:32.374Z,18.03
2017-10-12T01:35:58.595Z,17.37
2017-10-12T01:38:24.862Z,17.53
2017-10-12T01:40:51.099Z,17.70
2017-10-12T01:43:17.328Z,14.00
2017-10-12T01:45:43.612Z,16.97
2017-10-12T01:48:09.840Z,16.13
2017-10-12T01:50:36.068Z,14.87
2017-10-12T01:53:02.347Z,14.47
2017-10-12T01:55:28.575Z,14.47
2017-10-12T01:57:54.817Z,15.00
2017-10-12T02:00:21.085Z,13.90
2017-10-12T02:02:47.323Z,13.50
2017-10-12T02:05:13.561Z,15.80
2017-10-12T02:07:39.806Z,12.50
2017-10-12T02:10:06.033Z,14.20
2017-10-12T02:12:32.284Z,13.83
2017-10-12T02:14:58.544Z,14.67
2017-10-12T02:17:24.777Z,14.70
2017-10-12T02:19:51.013Z,15.67
2017-10-12T02:22:17.260Z,15.07
2017-10-12T02:24:43.496Z,14.10
2017-10-12T02:27:09.781Z,13.70
2017-10-12T02:29:36.040Z,14.37
2017-10-12T02:32:02.276Z,14.50
2017-10-12T02:34:28.506Z,16.70
2017-10-12T02:36:54.778Z,17.90
2017-10-12T02:39:21.155Z,15.43
2017-10-12T02:41:47.388Z,16.37
2017-10-12T02:44:13.666Z,16.90
2017-10-12T02:46:40.035Z,17.47
2017-10-12T02:49:06.257Z,18.13
2017-10-12T02:51:32.507Z,19.80
2017-10-12T02:53:58.740Z,17.90
2017-10-12T02:56:24.970Z,17.90
2017-10-12T02:58:51.193Z,17.73
2017-10-12T03:01:17.425Z,18.20
2017-10-12T03:03:43.645Z,15.13
2017-10-12T03:06:09.930Z,15.80
2017-10-12T03:08:36.167Z,15.80
2017-10-12T03:11:02.386Z,18.00
2017-10-12T03:13:28.737Z,14.50
2017-10-12T03:15:54.973Z,16.53
2017-10-12T03:18:21.187Z,15.10
2017-10-12T03:20:47.459Z,14.47
2017-10-12T03:23:13.695Z,14.67
2017-10-12T03:25:39.936Z,15.07
2017-10-12T03:28:06.213Z,22.10
2017-10-12T03:30:32.444Z,15.77
2017-10-12T03:32:58.667Z,17.27
2017-10-12T03:35:24.936Z,18.83
2017-10-12T03:37:51.171Z,19.17
2017-10-12T03:40:17.389Z,16.47
2017-10-12T03:42:43.626Z,15.20
2017-10-12T03:45:09.842Z,13.87
2017-10-12T03:47:36.074Z,16.93
2017-10-12T03:50:02.344Z,15.03
2017-10-12T03:52:28.578Z,14.00
2017-10-12T03:54:54.811Z,14.67
2017-10-12T03:57:21.082Z,15.10
2017-10-12T03:59:47.312Z,13.77
2017-10-12T04:02:13.530Z,13.37
2017-10-12T04:04:39.795Z,13.20
2017-10-12T04:07:06.031Z,15.10
2017-10-12T04:09:32.258Z,12.77
2017-10-12T04:11:58.524Z,13.57
2017-10-12T04:14:24.761Z,12.40
2017-10-12T04:16:50.974Z,15.23
2017-10-12T04:19:17.326Z,18.00
2017-10-12T04:21:43.556Z,12.90
2017-10-12T04:24:09.807Z,15.33
2017-10-12T04:26:36.042Z,19.87
2017-10-12T04:29:02.270Z,26.27
2017-10-12T04:31:28.533Z,15.47
2017-10-12T04:33:54.845Z,14.07
2017-10-12T04:36:21.075Z,16.37
2017-10-12T04:38:47.300Z,15.17
2017-10-12T04:41:13.563Z,15.87
2017-10-12T04:43:39.803Z,17.20
2017-10-12T04:46:06.026Z,16.27
2017-10-12T04:48:32.281Z,17.23
2017-10-12T04:50:58.494Z,18.43
2017-10-12T04:53:24.717Z,18.83
2017-10-12T04:55:50.991Z,17.20
2017-10-12T04:58:17.212Z,15.47
2017-10-12T05:00:43.432Z,21.80
2017-10-12T05:03:09.675Z,16.83
2017-10-12T05:05:35.916Z,15.90
2017-10-12T05:08:02.188Z,14.70
2017-10-12T05:10:28.468Z,13.00
2017-10-12T05:12:54.698Z,16.37
2017-10-12T05:15:20.984Z,12.93
2017-10-12T05:17:47.246Z,11.63
2017-10-12T05:20:13.473Z,8.97
2017-10-12T05:22:39.687Z,9.70
2017-10-12T05:25:05.964Z,11.00
2017-10-12T05:27:32.204Z,11.32
2017-10-12T05:29:58.422Z,10.97
2017-10-12T05:32:24.712Z,11.90
2017-10-12T05:34:50.950Z,11.00
2017-10-12T05:37:17.205Z,10.63
2017-10-12T05:39:43.461Z,11.80
2017-10-12T05:42:09.680Z,11.70
2017-10-12T05:44:35.894Z,11.20
2017-10-12T05:47:02.161Z,11.53
2017-10-12T05:49:28.396Z,10.77
2017-10-12T05:51:54.632Z,10.90
2017-10-12T05:54:20.909Z,11.50
2017-10-12T05:56:47.132Z,12.33
2017-10-12T05:59:13.365Z,12.33
2017-10-12T06:01:39.648Z,12.57
2017-10-12T06:04:05.875Z,12.90
2017-10-12T06:06:32.100Z,12.70
2017-10-12T06:08:58.394Z,13.07
2017-10-12T06:11:24.564Z,10.77
2017-10-12T06:13:50.732Z,11.00
2017-10-12T06:16:16.942Z,11.27
2017-10-12T06:18:43.129Z,9.33
2017-10-12T06:21:09.290Z,7.80
2017-10-12T06:23:35.510Z,9.40
2017-10-12T06:26:01.688Z,8.57
2017-10-12T06:28:27.867Z,9.00
2017-10-12T06:30:54.069Z,8.50
2017-10-12T06:33:20.268Z,7.63
2017-10-12T06:35:46.460Z,8.40
2017-10-12T06:38:12.783Z,6.87
2017-10-12T06:40:38.946Z,6.90
2017-10-12T06:43:05.132Z,7.90
2017-10-12T06:45:31.409Z,7.33
2017-10-12T06:47:57.577Z,7.70
2017-10-12T06:50:23.739Z,7.23
2017-10-12T06:52:49.956Z,7.13
2017-10-12T06:55:16.122Z,7.50
2017-10-12T06:57:42.300Z,7.27
2017-10-12T07:00:08.517Z,8.70
2017-10-12T07:02:34.692Z,8.67
2017-10-12T07:05:00.882Z,8.10
2017-10-12T07:07:27.934Z,8.40
2017-10-12T07:09:54.261Z,8.10
2017-10-12T07:12:20.444Z,8.60
2017-10-12T07:14:46.664Z,9.00
2017-10-12T07:17:12.848Z,8.03
2017-10-12T07:19:39.036Z,9.40
2017-10-12T07:22:05.261Z,9.70
2017-10-12T07:24:31.449Z,8.27
2017-10-12T07:26:57.622Z,10.30
2017-10-12T07:29:23.841Z,7.83
2017-10-12T07:31:50.014Z,6.37
2017-10-12T07:34:16.213Z,7.40
2017-10-12T07:36:42.440Z,6.50
2017-10-12T07:39:08.619Z,8.93
2017-10-12T07:41:34.786Z,8.90
2017-10-12T07:44:01.001Z,7.30
2017-10-12T07:46:27.180Z,8.97
2017-10-12T07:48:53.376Z,9.47
2017-10-12T07:51:19.591Z,7.90
2017-10-12T07:53:45.770Z,8.33
2017-10-12T07:56:11.948Z,7.23
2017-10-12T07:58:38.188Z,8.40
2017-10-12T08:01:04.381Z,5.83
2017-10-12T08:03:30.559Z,7.07
2017-10-12T08:05:56.780Z,6.73
2017-10-12T08:08:22.961Z,6.73
2017-10-12T08:10:49.127Z,6.13
2017-10-12T08:13:15.345Z,5.83
2017-10-12T08:15:41.530Z,5.53
2017-10-12T08:18:07.699Z,5.53
2017-10-12T08:20:33.912Z,5.00
2017-10-12T08:23:00.095Z,4.63
2017-10-12T08:25:26.270Z,5.30
2017-10-12T08:27:52.489Z,4.50
2017-10-12T08:30:18.665Z,5.03
2017-10-12T08:32:44.841Z,4.20
2017-10-12T08:35:11.100Z,2.90
2017-10-12T08:37:37.283Z,3.23
2017-10-12T08:40:03.469Z,5.27
2017-10-12T08:42:29.681Z,5.10
2017-10-12T08:44:55.876Z,4.17
2017-10-12T08:47:22.054Z,3.00
2017-10-12T08:49:48.283Z,4.77
2017-10-12T08:52:14.472Z,3.80
2017-10-12T08:54:40.655Z,3.73
2017-10-12T08:57:06.875Z,3.50
2017-10-12T08:59:33.053Z,4.20
2017-10-12T09:01:59.227Z,3.87
2017-10-12T09:04:25.440Z,3.27
2017-10-12T09:06:51.629Z,3.20
2017-10-12T09:09:17.873Z,3.00
2017-10-12T09:11:44.079Z,3.17
2017-10-12T09:14:10.260Z,4.60
2017-10-12T09:16:36.445Z,2.50
2017-10-12T09:19:02.646Z,3.30
2017-10-12T09:21:28.869Z,2.83
2017-10-12T09:23:55.046Z,2.13
2017-10-12T09:26:21.337Z,2.47
2017-10-12T09:28:47.568Z,3.30
2017-10-12T09:31:13.795Z,3.50
2017-10-12T09:33:40.038Z,2.00
2017-10-12T09:36:06.460Z,2.80
2017-10-12T09:38:32.691Z,1.90
2017-10-12T09:40:58.986Z,2.10
2017-10-12T09:43:25.344Z,2.00
2017-10-12T09:45:51.554Z,1.93
2017-10-12T09:48:17.810Z,1.60
2017-10-12T09:50:44.040Z,1.40
2017-10-12T09:53:10.258Z,1.60
2017-10-12T09:55:36.545Z,1.87
2017-10-12T09:58:02.770Z,1.30
2017-10-12T10:00:28.994Z,1.70
2017-10-12T10:02:55.261Z,1.50
2017-10-12T10:05:21.474Z,2.17
2017-10-12T10:07:47.838Z,2.10
2017-10-12T10:10:14.108Z,1.37
2017-10-12T10:12:40.340Z,1.57
2017-10-12T10:15:06.566Z,1.87
2017-10-12T10:17:32.821Z,1.47
2017-10-12T10:19:59.040Z,1.40
2017-10-12T10:22:25.272Z,1.67
2017-10-12T10:24:51.548Z,2.00
2017-10-12T10:27:17.827Z,3.00
2017-10-12T10:29:44.055Z,2.10
2017-10-12T10:32:10.328Z,1.70
2017-10-12T10:34:36.561Z,2.37
2017-10-12T10:37:02.796Z,1.97
2017-10-12T10:39:29.078Z,1.83
2017-10-12T10:41:55.311Z,1.50
2017-10-12T10:44:21.675Z,1.63
2017-10-12T10:46:47.941Z,2.40
2017-10-12T10:49:14.161Z,1.80
2017-10-12T10:51:40.396Z,1.53
2017-10-12T10:54:06.792Z,2.03
2017-10-12T10:56:33.065Z,1.23
2017-10-12T10:58:59.286Z,2.37
2017-10-12T11:01:25.551Z,2.00
2017-10-12T11:03:51.766Z,1.10
2017-10-12T11:06:17.996Z,2.27
2017-10-12T11:08:44.276Z,2.25
2017-10-12T11:11:10.502Z,1.93
2017-10-12T11:13:36.722Z,2.50
2017-10-12T11:16:02.991Z,1.10
2017-10-12T11:18:29.233Z,1.20
2017-10-12T11:20:55.445Z,1.33
2017-10-12T11:23:21.698Z,1.17
2017-10-12T11:25:47.916Z,1.08
2017-10-12T11:28:14.134Z,1.10
2017-10-12T11:30:40.397Z,1.43
2017-10-12T11:33:06.610Z,1.30
2017-10-12T11:35:32.840Z,1.30
2017-10-12T11:37:59.115Z,1.48
2017-10-12T11:40:25.352Z,1.12
2017-10-12T11:42:51.578Z,1.27
2017-10-12T11:45:17.828Z,1.75
2017-10-12T11:47:44.040Z,1.55
2017-10-12T11:50:10.254Z,1.30
2017-10-12T11:52:36.521Z,1.25
2017-10-12T11:55:02.742Z,1.77
2017-10-12T11:57:28.968Z,2.00
2017-10-12T11:59:55.222Z,1.50
2017-10-12T12:02:21.604Z,2.00
2017-10-12T12:04:47.839Z,1.70
2017-10-12T12:07:14.104Z,1.63
2017-10-12T12:09:40.325Z,1.47
2017-10-12T12:12:06.548Z,0.93
2017-10-12T12:14:32.845Z,1.07
2017-10-12T12:16:59.080Z,1.12
2017-10-12T12:19:25.310Z,1.67
2017-10-12T12:21:51.560Z,1.20
2017-10-12T12:24:17.769Z,1.70
2017-10-12T12:26:43.997Z,1.33
2017-10-12T12:29:10.269Z,1.87
2017-10-12T12:31:36.505Z,1.95
2017-10-12T12:34:02.726Z,1.50
2017-10-12T12:36:28.984Z,2.15
2017-10-12T12:38:55.238Z,1.92
2017-10-12T12:41:21.454Z,1.40
2017-10-12T12:43:47.755Z,2.08
2017-10-12T12:46:13.974Z,2.20
2017-10-12T12:48:40.211Z,2.08
2017-10-12T12:51:06.444Z,2.12
2017-10-12T12:53:32.685Z,2.12
2017-10-12T12:55:59.031Z,1.80
2017-10-12T12:58:25.281Z,2.33
2017-10-12T13:00:51.512Z,2.42
2017-10-12T13:03:17.742Z,2.87
2017-10-12T13:05:44.008Z,2.35
2017-10-12T13:08:10.237Z,1.60
2017-10-12T13:10:36.451Z,1.20
2017-10-12T13:13:02.729Z,1.60
2017-10-12T13:15:28.963Z,1.40
2017-10-12T13:17:55.293Z,1.80
2017-10-12T13:20:21.545Z,3.50
2017-10-12T13:22:47.761Z,2.23
2017-10-12T13:25:13.996Z,1.90
2017-10-12T13:27:40.269Z,2.60
2017-10-12T13:30:06.493Z,1.90
2017-10-12T13:32:32.720Z,2.23
2017-10-12T13:34:58.972Z,2.00
2017-10-12T13:37:25.342Z,2.67
2017-10-12T13:39:51.951Z,2.60
2017-10-12T13:42:18.616Z,2.27
2017-10-12T13:44:45.255Z,2.47
2017-10-12T13:47:11.717Z,2.20
2017-10-12T13:49:38.120Z,3.20
2017-10-12T13:52:04.737Z,2.40
2017-10-12T13:54:31.131Z,2.30
2017-10-12T13:56:57.574Z,1.80
2017-10-12T13:59:23.917Z,2.40
2017-10-12T14:01:50.492Z,2.53
2017-10-12T14:04:16.926Z,2.40
2017-10-12T14:06:43.565Z,2.30
2017-10-12T14:09:10.061Z,3.30
2017-10-12T14:11:36.509Z,2.97
2017-10-12T14:14:03.020Z,2.60
2017-10-12T14:16:29.462Z,2.70
2017-10-12T14:18:55.875Z,2.70
2017-10-12T14:21:22.371Z,2.30
2017-10-12T14:23:48.985Z,2.37
2017-10-12T14:26:15.236Z,2.20
2017-10-12T14:28:41.746Z,2.50
2017-10-12T14:31:08.265Z,2.47
2017-10-12T14:33:34.705Z,2.07
2017-10-12T14:36:01.125Z,1.90
2017-10-12T14:38:27.568Z,2.60
2017-10-12T14:40:53.985Z,2.70
2017-10-12T14:43:20.428Z,1.90
2017-10-12T14:45:46.910Z,2.00
2017-10-12T14:48:13.343Z,1.77
2017-10-12T14:50:39.571Z,3.27
2017-10-12T14:53:05.799Z,4.53
2017-10-12T14:55:32.438Z,5.43
2017-10-12T14:57:58.666Z,4.67
2017-10-12T15:00:24.895Z,19.83
2017-10-12T15:02:51.330Z,26.00
2017-10-12T15:05:17.831Z,25.60
2017-10-12T15:07:44.400Z,10.43
2017-10-12T15:10:10.892Z,27.73
2017-10-12T15:12:37.333Z,50.33
2017-10-12T15:15:03.906Z,31.33
2017-10-12T15:17:30.543Z,38.33
2017-10-12T15:19:57.183Z,22.30
2017-10-12T15:22:23.799Z,24.40
2017-10-12T15:24:50.218Z,36.03
2017-10-12T15:27:16.501Z,43.50
2017-10-12T15:29:42.723Z,29.30
2017-10-12T15:32:08.939Z,39.17
2017-10-12T15:34:35.365Z,41.20
2017-10-12T15:37:02.012Z,34.40
2017-10-12T15:39:28.619Z,11.33
2017-10-12T15:41:55.038Z,11.17
2017-10-12T15:44:21.479Z,18.30
2017-10-12T15:46:47.900Z,23.80
2017-10-12T15:49:14.314Z,19.97
2017-10-12T15:51:41.800Z,19.07
2017-10-12T15:54:08.010Z,16.63
2017-10-12T15:56:34.437Z,12.00
2017-10-12T15:59:00.731Z,11.63
2017-10-12T16:01:27.026Z,12.97
2017-10-12T16:03:53.437Z,7.43
2017-10-12T16:06:19.802Z,12.30
2017-10-12T16:08:46.465Z,11.97
2017-10-12T16:11:12.996Z,9.70
2017-10-12T16:13:39.385Z,7.97
2017-10-12T16:16:05.926Z,8.60
2017-10-12T16:18:32.361Z,5.70
2017-10-12T16:20:58.618Z,6.30
2017-10-12T16:23:25.103Z,7.77
2017-10-12T16:25:51.482Z,8.13
2017-10-12T16:28:17.988Z,10.70
2017-10-12T16:30:44.566Z,8.00
2017-10-12T16:33:10.920Z,9.43
2017-10-12T16:35:37.389Z,9.97
2017-10-12T16:38:03.825Z,6.73
2017-10-12T16:40:30.098Z,7.77
2017-10-12T16:42:56.533Z,9.70
2017-10-12T16:45:22.969Z,9.13
2017-10-12T16:47:49.409Z,9.20
2017-10-12T16:50:15.611Z,9.13
2017-10-12T16:52:42.277Z,10.40
2017-10-12T16:55:08.705Z,8.87
2017-10-12T16:57:35.118Z,6.20
2017-10-12T17:00:01.510Z,6.73
2017-10-12T17:02:27.792Z,6.90
2017-10-12T17:04:54.026Z,8.30
2017-10-12T17:07:20.662Z,6.93
2017-10-12T17:09:47.153Z,6.10
2017-10-12T17:12:13.593Z,6.20
2017-10-12T17:14:40.168Z,6.60
2017-10-12T17:17:06.776Z,5.73
2017-10-12T17:19:33.217Z,8.27
2017-10-12T17:21:59.663Z,8.80
2017-10-12T17:24:26.107Z,7.33
2017-10-12T17:26:52.565Z,8.97
2017-10-12T17:29:19.034Z,39.00
2017-10-12T17:31:45.454Z,11.20
2017-10-12T17:34:12.041Z,9.60
2017-10-12T17:36:38.657Z,10.87
2017-10-12T17:39:05.076Z,11.17
2017-10-12T17:41:31.499Z,8.73
2017-10-12T17:43:58.040Z,9.07
2017-10-12T17:48:50.849Z,17.67
2017-10-12T17:51:17.238Z,12.93
2017-10-12T17:53:43.501Z,23.13
2017-10-12T17:56:09.736Z,18.63
2017-10-12T17:58:36.375Z,12.10
2017-10-12T18:01:02.578Z,20.50
2017-10-12T18:03:28.874Z,10.67
2017-10-12T18:05:55.314Z,9.80
2017-10-12T18:08:21.703Z,11.47
2017-10-12T18:10:48.146Z,8.50
2017-10-12T18:13:14.362Z,8.77
2017-10-12T18:15:40.594Z,8.60
2017-10-12T18:18:06.940Z,9.40
2017-10-12T18:20:36.142Z,8.33
2017-10-12T18:23:02.804Z,8.90
2017-10-12T18:25:29.227Z,10.73
2017-10-12T18:27:55.686Z,9.43
2017-10-12T18:30:22.134Z,10.30
2017-10-12T18:32:48.649Z,8.33
2017-10-12T18:35:15.367Z,9.33
2017-10-12T18:37:41.892Z,7.07
2017-10-12T18:40:08.367Z,7.90
2017-10-12T18:42:34.921Z,9.00
2017-10-12T18:45:01.498Z,7.73
2017-10-12T18:47:27.855Z,8.77
2017-10-12T18:52:21.082Z,8.10
2017-10-12T18:54:47.536Z,9.67
2017-10-12T18:57:14.231Z,9.60
2017-10-12T18:59:40.764Z,8.70
2017-10-12T19:02:07.572Z,7.77
2017-10-12T19:04:33.938Z,8.40
2017-10-12T19:07:00.557Z,8.00
2017-10-12T19:09:27.094Z,7.70
2017-10-12T19:11:53.555Z,8.10
2017-10-12T19:14:20.155Z,8.13
2017-10-12T19:16:46.789Z,10.83
2017-10-12T19:19:13.548Z,8.53
2017-10-12T19:21:40.072Z,7.17
2017-10-12T19:24:06.608Z,8.33
2017-10-12T19:26:33.747Z,8.00
2017-10-12T19:29:00.335Z,8.97
2017-10-12T19:31:26.834Z,6.70
2017-10-12T19:33:53.239Z,7.83
2017-10-12T19:36:19.720Z,8.17
2017-10-12T19:38:46.208Z,8.80
2017-10-12T19:43:39.277Z,10.03
2017-10-12T19:46:05.824Z,9.70
2017-10-12T19:48:32.256Z,7.83
2017-10-12T19:55:51.268Z,7.53
2017-10-12T19:58:17.800Z,8.37
2017-10-12T20:00:44.181Z,7.40
2017-10-12T20:03:10.555Z,8.90
2017-10-12T20:05:36.832Z,8.50
2017-10-12T20:08:03.142Z,9.20
2017-10-12T20:10:29.501Z,9.13
2017-10-12T20:12:55.861Z,9.17
2017-10-12T20:15:22.152Z,9.27
2017-10-12T20:17:48.528Z,8.90
2017-10-12T20:20:14.772Z,9.17
2017-10-12T20:22:40.984Z,8.67
2017-10-12T20:25:07.206Z,7.17
2017-10-12T20:27:33.435Z,8.20
2017-10-12T20:29:59.650Z,9.23
2017-10-12T20:32:25.882Z,8.73
2017-10-12T20:34:52.103Z,8.93
2017-10-12T20:37:18.318Z,7.43
2017-10-12T20:39:44.529Z,8.27
2017-10-12T20:42:13.716Z,8.80
2017-10-12T20:44:37.085Z,8.00
2017-10-12T20:47:03.346Z,7.43
2017-10-12T20:51:55.717Z,9.17
2017-10-12T20:54:21.939Z,8.80
2017-10-12T20:56:48.136Z,10.10
2017-10-12T20:59:14.361Z,8.83
2017-10-12T21:01:40.568Z,8.07
2017-10-12T21:04:06.867Z,10.53
2017-10-12T21:06:33.202Z,8.50
2017-10-12T21:08:59.448Z,10.03
2017-10-12T21:11:25.654Z,10.47
2017-10-12T21:13:51.881Z,10.17
2017-10-12T21:16:18.132Z,8.83
2017-10-12T21:18:44.330Z,9.90
2017-10-12T21:21:10.546Z,12.20
2017-10-12T21:23:36.776Z,11.03
2017-10-12T21:26:03.002Z,10.57
2017-10-12T21:28:29.287Z,10.47
2017-10-12T21:30:55.505Z,9.00
2017-10-12T21:33:21.726Z,10.13
2017-10-12T21:35:47.950Z,10.40
2017-10-12T21:38:14.165Z,8.30
2017-10-12T21:40:40.414Z,10.03
2017-10-12T21:43:06.640Z,9.30
2017-10-12T21:45:32.831Z,7.83
2017-10-12T21:47:59.072Z,8.47
2017-10-12T21:50:25.281Z,8.03
2017-10-12T21:52:51.721Z,8.67
2017-10-12T21:55:17.959Z,9.80
2017-10-12T21:57:44.193Z,9.97
2017-10-12T22:00:10.444Z,10.70
2017-10-12T22:02:36.674Z,8.83
2017-10-12T22:05:03.084Z,8.63
2017-10-12T22:07:29.341Z,9.10
2017-10-12T22:09:55.537Z,9.37
2017-10-12T22:12:21.754Z,9.47
2017-10-12T22:14:47.999Z,9.30
2017-10-12T22:17:14.242Z,9.67
2017-10-12T22:19:40.472Z,8.80
2017-10-12T22:22:06.711Z,9.10
2017-10-12T22:24:33.003Z,10.10
2017-10-12T22:26:59.235Z,9.30
2017-10-12T22:29:25.459Z,9.30
2017-10-12T22:31:51.721Z,9.30
2017-10-12T22:34:17.942Z,9.93
2017-10-12T22:36:44.157Z,10.00
2017-10-12T22:39:10.382Z,10.67
2017-10-12T22:41:36.601Z,8.77
2017-10-12T22:44:02.825Z,10.60
2017-10-12T22:46:29.140Z,9.03
2017-10-12T22:48:55.362Z,7.87
2017-10-12T22:51:21.571Z,9.13
2017-10-12T22:53:47.789Z,10.20
2017-10-12T22:56:14.007Z,9.20
2017-10-12T22:58:40.208Z,10.03
2017-10-12T23:01:06.440Z,9.80
2017-10-12T23:03:32.659Z,9.57
2017-10-12T23:05:58.924Z,9.07
2017-10-12T23:08:25.144Z,9.83
2017-10-12T23:10:51.384Z,8.47
2017-10-12T23:13:17.655Z,8.67
2017-10-12T23:15:43.890Z,8.33
2017-10-12T23:18:10.122Z,8.47
2017-10-12T23:20:36.342Z,7.47
2017-10-12T23:23:02.580Z,8.40
2017-10-12T23:25:28.811Z,7.90
2017-10-12T23:27:55.021Z,9.90
2017-10-12T23:30:21.229Z,10.53
2017-10-12T23:32:47.445Z,9.33
2017-10-12T23:35:13.712Z,9.30
2017-10-12T23:37:39.940Z,8.00
2017-10-12T23:40:06.148Z,9.57
2017-10-12T23:42:32.378Z,10.20
2017-10-12T23:44:58.601Z,10.47
2017-10-12T23:47:24.822Z,10.57
2017-10-12T23:49:51.096Z,10.77
2017-10-12T23:52:17.317Z,10.27
2017-10-12T23:54:43.539Z,11.23
2017-10-12T23:57:09.762Z,11.07
2017-10-12T23:59:35.979Z,12.23
